RYR183Q GMMH-LEMD
Flight info
| Callsign | RYR183Q |
|---|---|
| Flight time | 2h 32m |
| Altitude | 36000 |
| Route | DKH L660 SOLNA DCT ROLRO DCT TAKAV DCT GIMAL DCT PESAS DCT OSLEP DCT OXACA DCT PARKA DCT SOTUK |
| Aircraft | B738/M-SDE2E3FGHIRWXY/LB1 |
Departure
| Time | 2026-05-04 22:06 |
|---|---|
| Airport | Dakhla Airport (GMMH) |
Arrival
| Time | 2026-05-05 00:38 |
|---|---|
| Airport | Adolfo Suárez Madrid–Barajas Airport (LEMD) |
| Time | Latitude | Longitude | Altitude | Speed | Heading |
|---|---|---|---|---|---|
| 2026-05-04 21:52 | 23.71396 | -15.92943 | 40 ft | 0 kts | 307° |
| 2026-05-04 22:02 | 23.71399 | -15.92944 | 40 ft | 1 kts | 338° |
| 2026-05-04 22:02 | 23.71427 | -15.92948 | 40 ft | 9 kts | 352° |
| 2026-05-04 22:02 | 23.71471 | -15.93000 | 40 ft | 11 kts | 292° |
| 2026-05-04 22:02 | 23.71502 | -15.93083 | 40 ft | 12 kts | 293° |
| 2026-05-04 22:03 | 23.71484 | -15.93158 | 40 ft | 11 kts | 213° |
| 2026-05-04 22:03 | 23.71412 | -15.93191 | 41 ft | 12 kts | 202° |
| 2026-05-04 22:03 | 23.71321 | -15.93231 | 41 ft | 17 kts | 202° |
| 2026-05-04 22:03 | 23.71191 | -15.93290 | 41 ft | 23 kts | 204° |
| 2026-05-04 22:04 | 23.71036 | -15.93365 | 42 ft | 24 kts | 201° |
| 2026-05-04 22:04 | 23.70886 | -15.93431 | 43 ft | 23 kts | 202° |
| 2026-05-04 22:04 | 23.70743 | -15.93496 | 43 ft | 22 kts | 202° |
| 2026-05-04 22:04 | 23.70606 | -15.93558 | 43 ft | 17 kts | 201° |
| 2026-05-04 22:05 | 23.70552 | -15.93629 | 43 ft | 13 kts | 279° |
| 2026-05-04 22:05 | 23.70585 | -15.93720 | 42 ft | 13 kts | 294° |
| 2026-05-04 22:05 | 23.70660 | -15.93732 | 42 ft | 12 kts | 22° |
| 2026-05-04 22:05 | 23.70760 | -15.93685 | 41 ft | 28 kts | 23° |
| 2026-05-04 22:06 | 23.71211 | -15.93479 | 44 ft | 112 kts | 22° |
| 2026-05-04 22:06 | 23.72141 | -15.93048 | 263 ft | 165 kts | 24° |
| 2026-05-04 22:06 | 23.73255 | -15.92536 | 1224 ft | 175 kts | 23° |
| 2026-05-04 22:06 | 23.74384 | -15.91988 | 2199 ft | 185 kts | 30° |
| 2026-05-04 22:07 | 23.75542 | -15.91215 | 2771 ft | 206 kts | 35° |
| 2026-05-04 22:07 | 23.76781 | -15.90276 | 3000 ft | 231 kts | 36° |
| 2026-05-04 22:07 | 23.78130 | -15.89232 | 3383 ft | 246 kts | 37° |
| 2026-05-04 22:07 | 23.79567 | -15.88117 | 3734 ft | 264 kts | 37° |
| 2026-05-04 22:08 | 23.81112 | -15.86919 | 4239 ft | 279 kts | 37° |
| 2026-05-04 22:08 | 23.82727 | -15.85669 | 4967 ft | 286 kts | 37° |
| 2026-05-04 22:08 | 23.84358 | -15.84407 | 5682 ft | 293 kts | 36° |
| 2026-05-04 22:08 | 23.86047 | -15.83100 | 6460 ft | 298 kts | 36° |
| 2026-05-04 22:09 | 23.87735 | -15.81795 | 7202 ft | 302 kts | 35° |
| 2026-05-04 22:09 | 23.89465 | -15.80459 | 7942 ft | 307 kts | 34° |
| 2026-05-04 22:09 | 23.91232 | -15.79093 | 8665 ft | 312 kts | 34° |
| 2026-05-04 22:09 | 23.93027 | -15.77706 | 9346 ft | 319 kts | 33° |
| 2026-05-04 22:10 | 23.94847 | -15.76300 | 10036 ft | 325 kts | 33° |
| 2026-05-04 22:10 | 23.96738 | -15.74839 | 10439 ft | 343 kts | 33° |
| 2026-05-04 22:10 | 23.98759 | -15.73279 | 10721 ft | 362 kts | 33° |
| 2026-05-04 22:10 | 24.00840 | -15.71670 | 11323 ft | 368 kts | 33° |
| 2026-05-04 22:11 | 24.02918 | -15.70059 | 12031 ft | 371 kts | 33° |
| 2026-05-04 22:11 | 24.05036 | -15.68415 | 12750 ft | 374 kts | 32° |
| 2026-05-04 22:11 | 24.07178 | -15.66754 | 13466 ft | 378 kts | 32° |
| 2026-05-04 22:11 | 24.09321 | -15.65091 | 14109 ft | 383 kts | 32° |
| 2026-05-04 22:12 | 24.11517 | -15.63386 | 14754 ft | 386 kts | 32° |
| 2026-05-04 22:12 | 24.13699 | -15.61692 | 15400 ft | 389 kts | 32° |
| 2026-05-04 22:12 | 24.15921 | -15.59966 | 16059 ft | 392 kts | 32° |
| 2026-05-04 22:12 | 24.18163 | -15.58224 | 16699 ft | 396 kts | 32° |
| 2026-05-04 22:13 | 24.20403 | -15.56483 | 17310 ft | 400 kts | 32° |
| 2026-05-04 22:13 | 24.22693 | -15.54703 | 17939 ft | 404 kts | 33° |
| 2026-05-04 22:13 | 24.24990 | -15.52915 | 18524 ft | 407 kts | 32° |
| 2026-05-04 22:13 | 24.27293 | -15.51123 | 19075 ft | 410 kts | 32° |
| 2026-05-04 22:14 | 24.29633 | -15.49301 | 19616 ft | 414 kts | 32° |
| 2026-05-04 22:14 | 24.32028 | -15.47437 | 19859 ft | 427 kts | 32° |
| 2026-05-04 22:14 | 24.34505 | -15.45511 | 19976 ft | 443 kts | 32° |
| 2026-05-04 22:14 | 24.37029 | -15.43547 | 20088 ft | 456 kts | 32° |
| 2026-05-04 22:15 | 24.39654 | -15.41500 | 20222 ft | 467 kts | 32° |
| 2026-05-04 22:15 | 24.42340 | -15.39403 | 20428 ft | 476 kts | 32° |
| 2026-05-04 22:15 | 24.45050 | -15.37283 | 20730 ft | 480 kts | 32° |
| 2026-05-04 22:15 | 24.46855 | -15.35871 | 21009 ft | 481 kts | 32° |
| 2026-05-04 22:16 | 24.50476 | -15.33035 | 21763 ft | 478 kts | 32° |
| 2026-05-04 22:16 | 24.53185 | -15.30912 | 22366 ft | 476 kts | 31° |
| 2026-05-04 22:16 | 24.55849 | -15.28824 | 22920 ft | 475 kts | 31° |
| 2026-05-04 22:16 | 24.58556 | -15.26704 | 23434 ft | 475 kts | 31° |
| 2026-05-04 22:17 | 24.61254 | -15.24591 | 23889 ft | 475 kts | 31° |
| 2026-05-04 22:17 | 24.63955 | -15.22474 | 24332 ft | 475 kts | 31° |
| 2026-05-04 22:17 | 24.66619 | -15.20385 | 24749 ft | 476 kts | 31° |
| 2026-05-04 22:17 | 24.69324 | -15.18262 | 25179 ft | 477 kts | 31° |
| 2026-05-04 22:18 | 24.72049 | -15.16123 | 25642 ft | 477 kts | 31° |
| 2026-05-04 22:18 | 24.74720 | -15.14023 | 26090 ft | 478 kts | 31° |
| 2026-05-04 22:18 | 24.77437 | -15.11888 | 26540 ft | 478 kts | 31° |
| 2026-05-04 22:18 | 24.80152 | -15.09752 | 26982 ft | 479 kts | 31° |
| 2026-05-04 22:19 | 24.82833 | -15.07642 | 27433 ft | 479 kts | 31° |
| 2026-05-04 22:19 | 24.85551 | -15.05502 | 27895 ft | 479 kts | 31° |
| 2026-05-04 22:19 | 24.88277 | -15.03353 | 28344 ft | 479 kts | 31° |
| 2026-05-04 22:19 | 24.90966 | -15.01233 | 28787 ft | 480 kts | 31° |
| 2026-05-04 22:20 | 24.93689 | -14.99085 | 29246 ft | 480 kts | 31° |
| 2026-05-04 22:20 | 24.96408 | -14.96940 | 29440 ft | 487 kts | 31° |
| 2026-05-04 22:20 | 24.99190 | -14.94747 | 29516 ft | 496 kts | 31° |
| 2026-05-04 22:21 | 25.04872 | -14.90251 | 29680 ft | 511 kts | 31° |
| 2026-05-04 22:21 | 25.09747 | -14.86380 | 29792 ft | 523 kts | 31° |
| 2026-05-04 22:22 | 25.15728 | -14.81619 | 29936 ft | 536 kts | 32° |
| 2026-05-04 22:22 | 25.18779 | -14.79187 | 30048 ft | 540 kts | 32° |
| 2026-05-04 22:22 | 25.21809 | -14.76770 | 30184 ft | 541 kts | 32° |
| 2026-05-04 22:22 | 25.24874 | -14.74323 | 30402 ft | 541 kts | 32° |
| 2026-05-04 22:23 | 25.27927 | -14.71885 | 30647 ft | 540 kts | 32° |
| 2026-05-04 22:23 | 25.30951 | -14.69470 | 30855 ft | 540 kts | 32° |
| 2026-05-04 22:23 | 25.34005 | -14.67029 | 31068 ft | 541 kts | 32° |
| 2026-05-04 22:23 | 25.37061 | -14.64587 | 31285 ft | 541 kts | 32° |
| 2026-05-04 22:24 | 25.40079 | -14.62173 | 31506 ft | 541 kts | 32° |
| 2026-05-04 22:24 | 25.43154 | -14.59713 | 31723 ft | 541 kts | 32° |
| 2026-05-04 22:24 | 25.46206 | -14.57269 | 31935 ft | 541 kts | 32° |
| 2026-05-04 22:24 | 25.49234 | -14.54843 | 32151 ft | 541 kts | 32° |
| 2026-05-04 22:25 | 25.52302 | -14.52382 | 32372 ft | 541 kts | 32° |
| 2026-05-04 22:25 | 25.55358 | -14.49930 | 32585 ft | 542 kts | 32° |
| 2026-05-04 22:25 | 25.58394 | -14.47492 | 32792 ft | 542 kts | 32° |
| 2026-05-04 22:25 | 25.61426 | -14.45055 | 33010 ft | 542 kts | 32° |
| 2026-05-04 22:26 | 25.64508 | -14.42578 | 33222 ft | 542 kts | 32° |
| 2026-05-04 22:26 | 25.67529 | -14.40147 | 33426 ft | 542 kts | 32° |
| 2026-05-04 22:26 | 25.70592 | -14.37681 | 33627 ft | 543 kts | 32° |
| 2026-05-04 22:26 | 25.73657 | -14.35214 | 33834 ft | 543 kts | 32° |
| 2026-05-04 22:27 | 25.76724 | -14.32761 | 34031 ft | 543 kts | 31° |
| 2026-05-04 22:27 | 25.79767 | -14.30344 | 34207 ft | 543 kts | 31° |
| 2026-05-04 22:27 | 25.82851 | -14.27898 | 34404 ft | 542 kts | 31° |
| 2026-05-04 22:27 | 25.85913 | -14.25469 | 34614 ft | 541 kts | 31° |
| 2026-05-04 22:28 | 25.88999 | -14.23017 | 34810 ft | 541 kts | 31° |
| 2026-05-04 22:28 | 25.92037 | -14.20600 | 34992 ft | 540 kts | 31° |
| 2026-05-04 22:28 | 25.95064 | -14.18186 | 35167 ft | 540 kts | 31° |
| 2026-05-04 22:28 | 25.98122 | -14.15747 | 35355 ft | 540 kts | 31° |
| 2026-05-04 22:29 | 26.01183 | -14.13302 | 35544 ft | 539 kts | 31° |
| 2026-05-04 22:29 | 26.04234 | -14.10863 | 35715 ft | 539 kts | 31° |
| 2026-05-04 22:29 | 26.07252 | -14.08449 | 35885 ft | 539 kts | 31° |
| 2026-05-04 22:29 | 26.10306 | -14.06004 | 36044 ft | 538 kts | 31° |
| 2026-05-04 22:30 | 26.13351 | -14.03566 | 36041 ft | 540 kts | 31° |
| 2026-05-04 22:30 | 26.19423 | -13.98700 | 36052 ft | 539 kts | 31° |
| 2026-05-04 22:31 | 26.25490 | -13.93830 | 36053 ft | 538 kts | 31° |
| 2026-05-04 22:31 | 26.31585 | -13.88932 | 36053 ft | 537 kts | 31° |
| 2026-05-04 22:32 | 26.37622 | -13.84074 | 36047 ft | 537 kts | 31° |
| 2026-05-04 22:32 | 26.43690 | -13.79185 | 36044 ft | 537 kts | 31° |
| 2026-05-04 22:33 | 26.49736 | -13.74307 | 36044 ft | 537 kts | 31° |
| 2026-05-04 22:33 | 26.55767 | -13.69434 | 36046 ft | 536 kts | 31° |
| 2026-05-04 22:34 | 26.61835 | -13.64525 | 36053 ft | 536 kts | 31° |
| 2026-05-04 22:34 | 26.67857 | -13.59648 | 36052 ft | 536 kts | 31° |
| 2026-05-04 22:35 | 26.73884 | -13.54759 | 36050 ft | 536 kts | 31° |
| 2026-05-04 22:35 | 26.79952 | -13.49830 | 36047 ft | 536 kts | 31° |
| 2026-05-04 22:36 | 26.85985 | -13.44923 | 36045 ft | 536 kts | 31° |
| 2026-05-04 22:36 | 26.91979 | -13.40041 | 36048 ft | 536 kts | 31° |
| 2026-05-04 22:37 | 26.98027 | -13.35109 | 36051 ft | 536 kts | 31° |
| 2026-05-04 22:37 | 27.04037 | -13.30200 | 36051 ft | 536 kts | 31° |
| 2026-05-04 22:38 | 27.10075 | -13.25261 | 36049 ft | 536 kts | 31° |
| 2026-05-04 22:38 | 27.15929 | -13.20090 | 36038 ft | 541 kts | 41° |
| 2026-05-04 22:39 | 27.21125 | -13.13981 | 36051 ft | 543 kts | 44° |
| 2026-05-04 22:39 | 27.26258 | -13.07726 | 36051 ft | 542 kts | 44° |
| 2026-05-04 22:40 | 27.31403 | -13.01555 | 36052 ft | 542 kts | 43° |
| 2026-05-04 22:40 | 27.36584 | -12.95408 | 36055 ft | 542 kts | 43° |
| 2026-05-04 22:41 | 27.41789 | -12.89236 | 36054 ft | 542 kts | 43° |
| 2026-05-04 22:41 | 27.46951 | -12.83096 | 36056 ft | 542 kts | 43° |
| 2026-05-04 22:42 | 27.52116 | -12.76938 | 36056 ft | 541 kts | 43° |
| 2026-05-04 22:42 | 27.57281 | -12.70770 | 36059 ft | 541 kts | 43° |
| 2026-05-04 22:43 | 27.62460 | -12.64583 | 36058 ft | 540 kts | 41° |
| 2026-05-04 22:43 | 27.68239 | -12.59430 | 36068 ft | 527 kts | 24° |
| 2026-05-04 22:44 | 27.74830 | -12.56129 | 36078 ft | 513 kts | 11° |
| 2026-05-04 22:44 | 27.81593 | -12.53577 | 36064 ft | 512 kts | 11° |
| 2026-05-04 22:45 | 27.88373 | -12.51006 | 36066 ft | 513 kts | 11° |
| 2026-05-04 22:45 | 27.98453 | -12.47077 | 36072 ft | 513 kts | 12° |
| 2026-05-04 22:46 | 28.05203 | -12.44419 | 36073 ft | 512 kts | 12° |
| 2026-05-04 22:46 | 28.11945 | -12.41761 | 36078 ft | 512 kts | 12° |
| 2026-05-04 22:47 | 28.18643 | -12.39121 | 36075 ft | 512 kts | 12° |
| 2026-05-04 22:47 | 28.25385 | -12.36462 | 36086 ft | 511 kts | 12° |
| 2026-05-04 22:48 | 28.32096 | -12.33811 | 36086 ft | 511 kts | 12° |
| 2026-05-04 22:48 | 28.38777 | -12.31168 | 36090 ft | 511 kts | 12° |
| 2026-05-04 22:49 | 28.45517 | -12.28498 | 36092 ft | 511 kts | 12° |
| 2026-05-04 22:49 | 28.52208 | -12.25844 | 36089 ft | 510 kts | 12° |
| 2026-05-04 22:50 | 28.58892 | -12.23189 | 36099 ft | 510 kts | 12° |
| 2026-05-04 22:50 | 28.65621 | -12.20513 | 36103 ft | 510 kts | 12° |
| 2026-05-04 22:51 | 28.72298 | -12.17854 | 36102 ft | 510 kts | 12° |
| 2026-05-04 22:51 | 28.79002 | -12.15180 | 36106 ft | 509 kts | 12° |
| 2026-05-04 22:52 | 28.85666 | -12.12519 | 36095 ft | 509 kts | 12° |
| 2026-05-04 22:52 | 28.92370 | -12.09838 | 36104 ft | 509 kts | 12° |
| 2026-05-04 22:53 | 28.99047 | -12.07164 | 36106 ft | 508 kts | 12° |
| 2026-05-04 22:53 | 29.05705 | -12.04494 | 36106 ft | 508 kts | 12° |
| 2026-05-04 22:54 | 29.12381 | -12.01813 | 36106 ft | 508 kts | 12° |
| 2026-05-04 22:54 | 29.19032 | -11.99139 | 36107 ft | 507 kts | 12° |
| 2026-05-04 22:55 | 29.25678 | -11.96463 | 36106 ft | 507 kts | 12° |
| 2026-05-04 22:55 | 29.32349 | -11.93773 | 36106 ft | 507 kts | 12° |
| 2026-05-04 22:56 | 29.38993 | -11.91090 | 36106 ft | 506 kts | 12° |
| 2026-05-04 22:56 | 29.45632 | -11.88406 | 36103 ft | 506 kts | 12° |
| 2026-05-04 22:57 | 29.52261 | -11.85722 | 36106 ft | 506 kts | 12° |
| 2026-05-04 22:57 | 29.58915 | -11.83024 | 36105 ft | 505 kts | 13° |
| 2026-05-04 22:58 | 29.65547 | -11.80331 | 36104 ft | 505 kts | 13° |
| 2026-05-04 22:58 | 29.72148 | -11.77647 | 36107 ft | 505 kts | 13° |
| 2026-05-04 22:59 | 29.78787 | -11.74944 | 36104 ft | 504 kts | 13° |
| 2026-05-04 22:59 | 29.85353 | -11.72267 | 36107 ft | 504 kts | 13° |
| 2026-05-04 23:00 | 29.91959 | -11.69570 | 36102 ft | 504 kts | 13° |
| 2026-05-04 23:00 | 29.98595 | -11.66856 | 36105 ft | 504 kts | 13° |
| 2026-05-04 23:01 | 30.05174 | -11.64162 | 36099 ft | 503 kts | 13° |
| 2026-05-04 23:01 | 30.11788 | -11.61450 | 36104 ft | 503 kts | 13° |
| 2026-05-04 23:02 | 30.18350 | -11.58756 | 36103 ft | 503 kts | 13° |
| 2026-05-04 23:02 | 30.24870 | -11.56075 | 36101 ft | 502 kts | 13° |
| 2026-05-04 23:03 | 30.31447 | -11.53367 | 36095 ft | 502 kts | 13° |
| 2026-05-04 23:03 | 30.38034 | -11.50650 | 36095 ft | 502 kts | 13° |
| 2026-05-04 23:04 | 30.44596 | -11.47940 | 36104 ft | 502 kts | 13° |
| 2026-05-04 23:04 | 30.51206 | -11.45206 | 36106 ft | 502 kts | 13° |
| 2026-05-04 23:05 | 30.57775 | -11.42486 | 36107 ft | 503 kts | 13° |
| 2026-05-04 23:05 | 30.64359 | -11.39756 | 36106 ft | 503 kts | 13° |
| 2026-05-04 23:06 | 30.70942 | -11.37022 | 36101 ft | 503 kts | 13° |
| 2026-05-04 23:06 | 30.77515 | -11.34287 | 36097 ft | 503 kts | 13° |
| 2026-05-04 23:07 | 30.84132 | -11.31531 | 36100 ft | 503 kts | 13° |
| 2026-05-04 23:07 | 30.90707 | -11.28788 | 36102 ft | 503 kts | 13° |
| 2026-05-04 23:08 | 30.97270 | -11.26046 | 36103 ft | 503 kts | 14° |
| 2026-05-04 23:08 | 31.02753 | -11.23752 | 36102 ft | 503 kts | 14° |
| 2026-05-04 23:09 | 31.09349 | -11.20988 | 36100 ft | 502 kts | 14° |
| 2026-05-04 23:09 | 31.15948 | -11.18220 | 36105 ft | 502 kts | 14° |
| 2026-05-04 23:10 | 31.22491 | -11.15470 | 36104 ft | 502 kts | 14° |
| 2026-05-04 23:10 | 31.29084 | -11.12641 | 36100 ft | 505 kts | 18° |
| 2026-05-04 23:11 | 31.35392 | -11.08980 | 36104 ft | 509 kts | 22° |
| 2026-05-04 23:11 | 31.41647 | -11.05059 | 36108 ft | 509 kts | 22° |
| 2026-05-04 23:12 | 31.47919 | -11.01162 | 36111 ft | 509 kts | 22° |
| 2026-05-04 23:12 | 31.54174 | -10.97341 | 36109 ft | 509 kts | 22° |
| 2026-05-04 23:13 | 31.60471 | -10.93518 | 36110 ft | 509 kts | 22° |
| 2026-05-04 23:13 | 31.66749 | -10.89704 | 36112 ft | 509 kts | 22° |
| 2026-05-04 23:14 | 31.73059 | -10.85860 | 36112 ft | 509 kts | 22° |
| 2026-05-04 23:14 | 31.79319 | -10.82038 | 36112 ft | 509 kts | 22° |
| 2026-05-04 23:15 | 31.85619 | -10.78184 | 36115 ft | 509 kts | 22° |
| 2026-05-04 23:15 | 31.91920 | -10.74325 | 36119 ft | 510 kts | 22° |
| 2026-05-04 23:16 | 31.98211 | -10.70466 | 36118 ft | 510 kts | 22° |
| 2026-05-04 23:16 | 32.04473 | -10.66619 | 36122 ft | 510 kts | 22° |
| 2026-05-04 23:17 | 32.10774 | -10.62741 | 36125 ft | 509 kts | 22° |
| 2026-05-04 23:17 | 32.17041 | -10.58879 | 36120 ft | 510 kts | 22° |
| 2026-05-04 23:18 | 32.23302 | -10.55014 | 36122 ft | 510 kts | 22° |
| 2026-05-04 23:18 | 32.29600 | -10.51121 | 36123 ft | 510 kts | 22° |
| 2026-05-04 23:19 | 32.35860 | -10.47244 | 36127 ft | 510 kts | 22° |
| 2026-05-04 23:19 | 32.42144 | -10.43347 | 36130 ft | 510 kts | 22° |
| 2026-05-04 23:20 | 32.48446 | -10.39432 | 36130 ft | 509 kts | 22° |
| 2026-05-04 23:20 | 32.54709 | -10.35536 | 36132 ft | 509 kts | 22° |
| 2026-05-04 23:21 | 32.60956 | -10.31643 | 36130 ft | 509 kts | 22° |
| 2026-05-04 23:21 | 32.67251 | -10.27714 | 36132 ft | 509 kts | 22° |
| 2026-05-04 23:22 | 32.73492 | -10.23813 | 36133 ft | 509 kts | 22° |
| 2026-05-04 23:22 | 32.79775 | -10.19879 | 36136 ft | 509 kts | 22° |
| 2026-05-04 23:23 | 32.86005 | -10.15971 | 36138 ft | 509 kts | 22° |
| 2026-05-04 23:23 | 32.92291 | -10.12023 | 36140 ft | 508 kts | 22° |
| 2026-05-04 23:24 | 32.98536 | -10.08094 | 36135 ft | 508 kts | 22° |
| 2026-05-04 23:24 | 33.04770 | -10.04165 | 36147 ft | 508 kts | 22° |
| 2026-05-04 23:25 | 33.11024 | -10.00218 | 36131 ft | 508 kts | 22° |
| 2026-05-04 23:25 | 33.17266 | -9.96271 | 36135 ft | 508 kts | 22° |
| 2026-05-04 23:26 | 33.23505 | -9.92321 | 36140 ft | 508 kts | 22° |
| 2026-05-04 23:26 | 33.29758 | -9.88354 | 36177 ft | 507 kts | 23° |
| 2026-05-04 23:27 | 33.35954 | -9.84417 | 36143 ft | 506 kts | 23° |
| 2026-05-04 23:27 | 33.42168 | -9.80462 | 36138 ft | 504 kts | 23° |
| 2026-05-04 23:28 | 33.48318 | -9.76542 | 36143 ft | 502 kts | 23° |
| 2026-05-04 23:28 | 33.54489 | -9.72603 | 36139 ft | 501 kts | 23° |
| 2026-05-04 23:29 | 33.60602 | -9.68694 | 36142 ft | 500 kts | 23° |
| 2026-05-04 23:29 | 33.66750 | -9.64756 | 36147 ft | 499 kts | 24° |
| 2026-05-04 23:30 | 33.72886 | -9.60821 | 36145 ft | 499 kts | 24° |
| 2026-05-04 23:30 | 33.78984 | -9.56902 | 36144 ft | 498 kts | 24° |
| 2026-05-04 23:31 | 33.85110 | -9.52959 | 36144 ft | 497 kts | 24° |
| 2026-05-04 23:31 | 33.91179 | -9.49047 | 36143 ft | 497 kts | 24° |
| 2026-05-04 23:32 | 33.97272 | -9.45112 | 36141 ft | 496 kts | 24° |
| 2026-05-04 23:32 | 34.03367 | -9.41169 | 36143 ft | 496 kts | 24° |
| 2026-05-04 23:33 | 34.09429 | -9.37242 | 36142 ft | 496 kts | 24° |
| 2026-05-04 23:33 | 34.15509 | -9.33297 | 36137 ft | 495 kts | 24° |
| 2026-05-04 23:34 | 34.21597 | -9.29340 | 36144 ft | 495 kts | 24° |
| 2026-05-04 23:34 | 34.27627 | -9.25414 | 36144 ft | 495 kts | 24° |
| 2026-05-04 23:35 | 34.33717 | -9.21443 | 36147 ft | 495 kts | 24° |
| 2026-05-04 23:35 | 34.39749 | -9.17502 | 36145 ft | 495 kts | 24° |
| 2026-05-04 23:36 | 34.45831 | -9.13523 | 36142 ft | 495 kts | 24° |
| 2026-05-04 23:36 | 34.51898 | -9.09547 | 36144 ft | 496 kts | 24° |
| 2026-05-04 23:37 | 34.57936 | -9.05583 | 36145 ft | 496 kts | 24° |
| 2026-05-04 23:37 | 34.64013 | -9.01587 | 36141 ft | 496 kts | 24° |
| 2026-05-04 23:38 | 34.70092 | -8.97582 | 36144 ft | 497 kts | 24° |
| 2026-05-04 23:38 | 34.76166 | -8.93574 | 36144 ft | 497 kts | 24° |
| 2026-05-04 23:39 | 34.82251 | -8.89553 | 36142 ft | 497 kts | 24° |
| 2026-05-04 23:39 | 34.88334 | -8.85525 | 36146 ft | 497 kts | 24° |
| 2026-05-04 23:40 | 34.94378 | -8.81517 | 36138 ft | 498 kts | 24° |
| 2026-05-04 23:40 | 35.00468 | -8.77472 | 36139 ft | 498 kts | 24° |
| 2026-05-04 23:41 | 35.06551 | -8.73424 | 36143 ft | 498 kts | 24° |
| 2026-05-04 23:41 | 35.12642 | -8.69364 | 36145 ft | 498 kts | 24° |
| 2026-05-04 23:42 | 35.18726 | -8.65301 | 36138 ft | 498 kts | 24° |
| 2026-05-04 23:42 | 35.24781 | -8.61251 | 36142 ft | 498 kts | 24° |
| 2026-05-04 23:43 | 35.30869 | -8.57172 | 36140 ft | 499 kts | 24° |
| 2026-05-04 23:43 | 35.36958 | -8.53085 | 36141 ft | 499 kts | 24° |
| 2026-05-04 23:44 | 35.42870 | -8.49111 | 36137 ft | 499 kts | 24° |
| 2026-05-04 23:44 | 35.48961 | -8.45008 | 36138 ft | 499 kts | 23° |
| 2026-05-04 23:45 | 35.55055 | -8.40897 | 36136 ft | 500 kts | 23° |
| 2026-05-04 23:45 | 35.61151 | -8.36777 | 36137 ft | 500 kts | 23° |
| 2026-05-04 23:46 | 35.67250 | -8.32648 | 36131 ft | 500 kts | 23° |
| 2026-05-04 23:46 | 35.73314 | -8.28535 | 36131 ft | 501 kts | 23° |
| 2026-05-04 23:47 | 35.79417 | -8.24389 | 36132 ft | 501 kts | 23° |
| 2026-05-04 23:47 | 35.85527 | -8.20230 | 36129 ft | 501 kts | 23° |
| 2026-05-04 23:48 | 35.91639 | -8.16063 | 36127 ft | 502 kts | 23° |
| 2026-05-04 23:48 | 35.97752 | -8.11888 | 36115 ft | 502 kts | 23° |
| 2026-05-04 23:49 | 36.03873 | -8.07699 | 36135 ft | 503 kts | 23° |
| 2026-05-04 23:49 | 36.10006 | -8.03495 | 36119 ft | 503 kts | 23° |
| 2026-05-04 23:50 | 36.16134 | -7.99286 | 36115 ft | 504 kts | 23° |
| 2026-05-04 23:50 | 36.22260 | -7.95072 | 36118 ft | 504 kts | 22° |
| 2026-05-04 23:51 | 36.28392 | -7.90845 | 36118 ft | 504 kts | 22° |
| 2026-05-04 23:51 | 36.34479 | -7.86642 | 36117 ft | 504 kts | 22° |
| 2026-05-04 23:52 | 36.40607 | -7.82404 | 36115 ft | 504 kts | 22° |
| 2026-05-04 23:52 | 36.46736 | -7.78156 | 36114 ft | 504 kts | 22° |
| 2026-05-04 23:53 | 36.52858 | -7.73905 | 36108 ft | 504 kts | 22° |
| 2026-05-04 23:53 | 36.58981 | -7.69647 | 36109 ft | 504 kts | 22° |
| 2026-05-04 23:54 | 36.64067 | -7.66103 | 36107 ft | 504 kts | 22° |
| 2026-05-04 23:54 | 36.70181 | -7.61837 | 36107 ft | 504 kts | 22° |
| 2026-05-04 23:55 | 36.76296 | -7.57561 | 36105 ft | 504 kts | 22° |
| 2026-05-04 23:56 | 36.85467 | -7.51134 | 36104 ft | 503 kts | 22° |
| 2026-05-04 23:56 | 36.91576 | -7.46842 | 36104 ft | 503 kts | 22° |
| 2026-05-04 23:57 | 36.97679 | -7.42547 | 36101 ft | 503 kts | 22° |
| 2026-05-04 23:57 | 37.03636 | -7.37849 | 36097 ft | 513 kts | 33° |
| 2026-05-04 23:58 | 37.08585 | -7.31346 | 36111 ft | 524 kts | 46° |
| 2026-05-04 23:58 | 37.13152 | -7.24218 | 36095 ft | 524 kts | 46° |
| 2026-05-04 23:59 | 37.17829 | -7.17192 | 36091 ft | 524 kts | 45° |
| 2026-05-04 23:59 | 37.22533 | -7.10192 | 36094 ft | 525 kts | 45° |
| 2026-05-05 00:00 | 37.27228 | -7.03175 | 36093 ft | 525 kts | 45° |
| 2026-05-05 00:00 | 37.31916 | -6.96141 | 36082 ft | 525 kts | 45° |
| 2026-05-05 00:01 | 37.36609 | -6.89085 | 36088 ft | 526 kts | 45° |
| 2026-05-05 00:01 | 37.41299 | -6.82018 | 36080 ft | 526 kts | 45° |
| 2026-05-05 00:02 | 37.45957 | -6.74985 | 36076 ft | 526 kts | 45° |
| 2026-05-05 00:02 | 37.50643 | -6.67895 | 36077 ft | 526 kts | 45° |
| 2026-05-05 00:03 | 37.55328 | -6.60790 | 36075 ft | 526 kts | 45° |
| 2026-05-05 00:03 | 37.60004 | -6.53684 | 36076 ft | 526 kts | 45° |
| 2026-05-05 00:04 | 37.64679 | -6.46565 | 36074 ft | 527 kts | 45° |
| 2026-05-05 00:04 | 37.69349 | -6.39437 | 36062 ft | 527 kts | 45° |
| 2026-05-05 00:05 | 37.74018 | -6.32294 | 36066 ft | 527 kts | 45° |
| 2026-05-05 00:05 | 37.78686 | -6.25139 | 36083 ft | 527 kts | 45° |
| 2026-05-05 00:06 | 37.83351 | -6.17972 | 36066 ft | 528 kts | 45° |
| 2026-05-05 00:06 | 37.87983 | -6.10837 | 36070 ft | 528 kts | 45° |
| 2026-05-05 00:07 | 37.92644 | -6.03651 | 36066 ft | 527 kts | 44° |
| 2026-05-05 00:07 | 37.97937 | -5.97437 | 36054 ft | 511 kts | 26° |
| 2026-05-05 00:08 | 38.03942 | -5.92697 | 36081 ft | 507 kts | 24° |
| 2026-05-05 00:08 | 38.09968 | -5.88022 | 36084 ft | 509 kts | 24° |
| 2026-05-05 00:09 | 38.15984 | -5.83263 | 36081 ft | 509 kts | 25° |
| 2026-05-05 00:09 | 38.21978 | -5.78458 | 36082 ft | 510 kts | 25° |
| 2026-05-05 00:10 | 38.27979 | -5.73628 | 36078 ft | 510 kts | 25° |
| 2026-05-05 00:10 | 38.33934 | -5.68831 | 36073 ft | 510 kts | 25° |
| 2026-05-05 00:11 | 38.39945 | -5.63907 | 36065 ft | 513 kts | 30° |
| 2026-05-05 00:11 | 38.45290 | -5.57838 | 36076 ft | 520 kts | 38° |
| 2026-05-05 00:12 | 38.50521 | -5.51439 | 36067 ft | 520 kts | 38° |
| 2026-05-05 00:12 | 38.55769 | -5.45072 | 36065 ft | 520 kts | 38° |
| 2026-05-05 00:13 | 38.61040 | -5.38750 | 36055 ft | 520 kts | 38° |
| 2026-05-05 00:13 | 38.66325 | -5.32428 | 36058 ft | 520 kts | 38° |
| 2026-05-05 00:14 | 38.71605 | -5.26098 | 36051 ft | 520 kts | 38° |
| 2026-05-05 00:14 | 38.76808 | -5.19831 | 35818 ft | 503 kts | 38° |
| 2026-05-05 00:14 | 38.79355 | -5.16757 | 35298 ft | 500 kts | 38° |
| 2026-05-05 00:15 | 38.81858 | -5.13737 | 34757 ft | 500 kts | 38° |
| 2026-05-05 00:15 | 38.84404 | -5.10667 | 34167 ft | 500 kts | 38° |
| 2026-05-05 00:15 | 38.86946 | -5.07599 | 33466 ft | 501 kts | 38° |
| 2026-05-05 00:15 | 38.89489 | -5.04525 | 32819 ft | 501 kts | 38° |
| 2026-05-05 00:16 | 38.92033 | -5.01445 | 32171 ft | 501 kts | 38° |
| 2026-05-05 00:16 | 38.94536 | -4.98411 | 31530 ft | 501 kts | 38° |
| 2026-05-05 00:16 | 38.97089 | -4.95314 | 30881 ft | 502 kts | 38° |
| 2026-05-05 00:16 | 38.99645 | -4.92209 | 30194 ft | 504 kts | 37° |
| 2026-05-05 00:17 | 39.02169 | -4.89139 | 29590 ft | 501 kts | 38° |
| 2026-05-05 00:17 | 39.04682 | -4.86075 | 29033 ft | 497 kts | 38° |
| 2026-05-05 00:17 | 39.07176 | -4.83032 | 28519 ft | 492 kts | 38° |
| 2026-05-05 00:17 | 39.09648 | -4.80013 | 27995 ft | 487 kts | 38° |
| 2026-05-05 00:18 | 39.12094 | -4.77023 | 27490 ft | 483 kts | 38° |
| 2026-05-05 00:18 | 39.14519 | -4.74057 | 26989 ft | 478 kts | 38° |
| 2026-05-05 00:18 | 39.16918 | -4.71123 | 26521 ft | 474 kts | 38° |
| 2026-05-05 00:18 | 39.19298 | -4.68208 | 26022 ft | 470 kts | 38° |
| 2026-05-05 00:19 | 39.21659 | -4.65314 | 25548 ft | 466 kts | 38° |
| 2026-05-05 00:19 | 39.24002 | -4.62439 | 25076 ft | 463 kts | 38° |
| 2026-05-05 00:19 | 39.26329 | -4.59582 | 24593 ft | 460 kts | 38° |
| 2026-05-05 00:19 | 39.28640 | -4.56742 | 24105 ft | 458 kts | 38° |
| 2026-05-05 00:20 | 39.30945 | -4.53906 | 23617 ft | 456 kts | 38° |
| 2026-05-05 00:20 | 39.33233 | -4.51089 | 23058 ft | 453 kts | 38° |
| 2026-05-05 00:20 | 39.35499 | -4.48294 | 22544 ft | 448 kts | 39° |
| 2026-05-05 00:20 | 39.37744 | -4.45521 | 22069 ft | 444 kts | 39° |
| 2026-05-05 00:21 | 39.39968 | -4.42773 | 21582 ft | 440 kts | 39° |
| 2026-05-05 00:21 | 39.42140 | -4.40087 | 21132 ft | 436 kts | 39° |
| 2026-05-05 00:21 | 39.44320 | -4.37389 | 20659 ft | 431 kts | 39° |
| 2026-05-05 00:21 | 39.46480 | -4.34713 | 20208 ft | 427 kts | 39° |
| 2026-05-05 00:22 | 39.48619 | -4.32062 | 19752 ft | 424 kts | 40° |
| 2026-05-05 00:22 | 39.50739 | -4.29432 | 19305 ft | 420 kts | 40° |
| 2026-05-05 00:22 | 39.52842 | -4.26820 | 18853 ft | 417 kts | 40° |
| 2026-05-05 00:22 | 39.54930 | -4.24225 | 18402 ft | 414 kts | 40° |
| 2026-05-05 00:23 | 39.57000 | -4.21650 | 17905 ft | 411 kts | 40° |
| 2026-05-05 00:23 | 39.59057 | -4.19088 | 17397 ft | 408 kts | 41° |
| 2026-05-05 00:23 | 39.61092 | -4.16551 | 16946 ft | 404 kts | 41° |
| 2026-05-05 00:23 | 39.63055 | -4.14101 | 16521 ft | 400 kts | 41° |
| 2026-05-05 00:24 | 39.65049 | -4.11612 | 16062 ft | 395 kts | 41° |
| 2026-05-05 00:24 | 39.67019 | -4.09150 | 15629 ft | 391 kts | 41° |
| 2026-05-05 00:24 | 39.68974 | -4.06705 | 15201 ft | 388 kts | 41° |
| 2026-05-05 00:24 | 39.70908 | -4.04285 | 14780 ft | 384 kts | 41° |
| 2026-05-05 00:25 | 39.72825 | -4.01883 | 14342 ft | 381 kts | 41° |
| 2026-05-05 00:25 | 39.74726 | -3.99500 | 13917 ft | 378 kts | 41° |
| 2026-05-05 00:25 | 39.76612 | -3.97134 | 13451 ft | 375 kts | 41° |
| 2026-05-05 00:25 | 39.78482 | -3.94787 | 12988 ft | 372 kts | 41° |
| 2026-05-05 00:26 | 39.80330 | -3.92464 | 12552 ft | 368 kts | 42° |
| 2026-05-05 00:26 | 39.82160 | -3.90163 | 12135 ft | 364 kts | 42° |
| 2026-05-05 00:26 | 39.83969 | -3.87885 | 11707 ft | 360 kts | 42° |
| 2026-05-05 00:26 | 39.85757 | -3.85634 | 11307 ft | 356 kts | 42° |
| 2026-05-05 00:27 | 39.87528 | -3.83400 | 10891 ft | 353 kts | 43° |
| 2026-05-05 00:27 | 39.89255 | -3.81222 | 10552 ft | 347 kts | 43° |
| 2026-05-05 00:27 | 39.90957 | -3.79073 | 10415 ft | 335 kts | 43° |
| 2026-05-05 00:27 | 39.92606 | -3.76989 | 10282 ft | 325 kts | 43° |
| 2026-05-05 00:28 | 39.94203 | -3.74968 | 10147 ft | 315 kts | 43° |
| 2026-05-05 00:28 | 39.95751 | -3.73009 | 10017 ft | 306 kts | 43° |
| 2026-05-05 00:28 | 39.97250 | -3.71112 | 9992 ft | 293 kts | 43° |
| 2026-05-05 00:28 | 39.98711 | -3.69261 | 9515 ft | 298 kts | 43° |
| 2026-05-05 00:29 | 40.00188 | -3.67390 | 9185 ft | 296 kts | 43° |
| 2026-05-05 00:29 | 40.01664 | -3.65518 | 8868 ft | 295 kts | 43° |
| 2026-05-05 00:29 | 40.03131 | -3.63657 | 8556 ft | 293 kts | 43° |
| 2026-05-05 00:29 | 40.04585 | -3.61810 | 8254 ft | 291 kts | 43° |
| 2026-05-05 00:30 | 40.06031 | -3.59972 | 7970 ft | 289 kts | 43° |
| 2026-05-05 00:30 | 40.07465 | -3.58149 | 7673 ft | 287 kts | 43° |
| 2026-05-05 00:30 | 40.08890 | -3.56336 | 7387 ft | 285 kts | 43° |
| 2026-05-05 00:30 | 40.10302 | -3.54538 | 7126 ft | 282 kts | 43° |
| 2026-05-05 00:31 | 40.11702 | -3.52753 | 6833 ft | 281 kts | 43° |
| 2026-05-05 00:31 | 40.13099 | -3.50974 | 6535 ft | 280 kts | 43° |
| 2026-05-05 00:31 | 40.14493 | -3.49196 | 6235 ft | 279 kts | 43° |
| 2026-05-05 00:31 | 40.15854 | -3.47458 | 6096 ft | 272 kts | 43° |
| 2026-05-05 00:32 | 40.17187 | -3.45761 | 5882 ft | 268 kts | 42° |
| 2026-05-05 00:32 | 40.18576 | -3.44101 | 5533 ft | 270 kts | 40° |
| 2026-05-05 00:32 | 40.19973 | -3.42466 | 5188 ft | 272 kts | 40° |
| 2026-05-05 00:32 | 40.21448 | -3.40887 | 4821 ft | 272 kts | 31° |
| 2026-05-05 00:33 | 40.23091 | -3.39640 | 4439 ft | 273 kts | 26° |
| 2026-05-05 00:33 | 40.24807 | -3.38574 | 4051 ft | 272 kts | 12° |
| 2026-05-05 00:33 | 40.26633 | -3.38393 | 4007 ft | 256 kts | 354° |
| 2026-05-05 00:33 | 40.28345 | -3.38649 | 3981 ft | 244 kts | 349° |
| 2026-05-05 00:34 | 40.29963 | -3.39149 | 3968 ft | 228 kts | 331° |
| 2026-05-05 00:34 | 40.31274 | -3.40170 | 3983 ft | 215 kts | 325° |
| 2026-05-05 00:34 | 40.32482 | -3.41274 | 3986 ft | 209 kts | 321° |
| 2026-05-05 00:34 | 40.33604 | -3.42400 | 3994 ft | 196 kts | 320° |
| 2026-05-05 00:35 | 40.34647 | -3.43467 | 3994 ft | 185 kts | 320° |
| 2026-05-05 00:35 | 40.35649 | -3.44492 | 3995 ft | 184 kts | 320° |
| 2026-05-05 00:35 | 40.36656 | -3.45524 | 3995 ft | 182 kts | 320° |
| 2026-05-05 00:35 | 40.37643 | -3.46528 | 3995 ft | 177 kts | 320° |
| 2026-05-05 00:36 | 40.38596 | -3.47503 | 3887 ft | 172 kts | 320° |
| 2026-05-05 00:36 | 40.39526 | -3.48453 | 3686 ft | 164 kts | 320° |
| 2026-05-05 00:36 | 40.40400 | -3.49345 | 3487 ft | 160 kts | 320° |
| 2026-05-05 00:36 | 40.41282 | -3.50246 | 3268 ft | 161 kts | 320° |
| 2026-05-05 00:37 | 40.42164 | -3.51146 | 3049 ft | 163 kts | 321° |
| 2026-05-05 00:37 | 40.42762 | -3.51757 | 2927 ft | 162 kts | 321° |
| 2026-05-05 00:37 | 40.43950 | -3.52969 | 2607 ft | 162 kts | 321° |
| 2026-05-05 00:37 | 40.44827 | -3.53864 | 2370 ft | 155 kts | 321° |
| 2026-05-05 00:38 | 40.45659 | -3.54713 | 2160 ft | 149 kts | 321° |
| 2026-05-05 00:38 | 40.46201 | -3.55266 | 2043 ft | 147 kts | 321° |
| 2026-05-05 00:38 | 40.46988 | -3.56081 | 1974 ft | 131 kts | 321° |
| 2026-05-05 00:38 | 40.47422 | -3.56523 | 1992 ft | 35 kts | 317° |
| 2026-05-05 00:39 | 40.47542 | -3.56748 | 1993 ft | 24 kts | 296° |
| 2026-05-05 00:39 | 40.47523 | -3.56871 | 1991 ft | 14 kts | 178° |
| 2026-05-05 00:39 | 40.47443 | -3.56805 | 1989 ft | 14 kts | 142° |
| 2026-05-05 00:39 | 40.47368 | -3.56728 | 1987 ft | 14 kts | 143° |
| 2026-05-05 00:40 | 40.47295 | -3.56653 | 1984 ft | 13 kts | 141° |
| 2026-05-05 00:40 | 40.47217 | -3.56575 | 1981 ft | 15 kts | 143° |
| 2026-05-05 00:40 | 40.47128 | -3.56495 | 1982 ft | 15 kts | 153° |
| 2026-05-05 00:40 | 40.47029 | -3.56455 | 1976 ft | 15 kts | 170° |
| 2026-05-05 00:41 | 40.46930 | -3.56453 | 1976 ft | 14 kts | 183° |
| 2026-05-05 00:41 | 40.46841 | -3.56460 | 1973 ft | 10 kts | 183° |
| 2026-05-05 00:41 | 40.46801 | -3.56524 | 1973 ft | 10 kts | 268° |
| 2026-05-05 00:41 | 40.46804 | -3.56614 | 1973 ft | 10 kts | 272° |
| 2026-05-05 00:42 | 40.46784 | -3.56690 | 1977 ft | 8 kts | 209° |
| 2026-05-05 00:42 | 40.46729 | -3.56700 | 1975 ft | 8 kts | 183° |
| 2026-05-05 00:42 | 40.46675 | -3.56701 | 1976 ft | 8 kts | 182° |
| 2026-05-05 00:42 | 40.46624 | -3.56707 | 1973 ft | 7 kts | 186° |
| 2026-05-05 00:43 | 40.46587 | -3.56717 | 1975 ft | 4 kts | 216° |
| 2026-05-05 00:43 | 40.46576 | -3.56751 | 1976 ft | 4 kts | 254° |
| 2026-05-05 00:43 | 40.46572 | -3.56786 | 1973 ft | 4 kts | 260° |
| 2026-05-05 00:43 | 40.46568 | -3.56822 | 1972 ft | 4 kts | 263° |
| 2026-05-05 00:44 | 40.46567 | -3.56835 | 1974 ft | 0 kts | 261° |